地図

経路データ

SID SEASON NUMBER BASIN SUBBASIN NAME ISO_TIME NATURE LAT LON WMO_WIND WMO_PRES WMO_AGENCY TRACK_TYPE DIST2LAND LANDFALL IFLAG USA_AGENCY USA_ATCF_ID USA_LAT USA_LON USA_RECORD USA_STATUS USA_WIND USA_PRES USA_SSHS USA_R34_NE USA_R34_SE USA_R34_SW USA_R34_NW USA_R50_NE USA_R50_SE USA_R50_SW USA_R50_NW USA_R64_NE USA_R64_SE USA_R64_SW USA_R64_NW USA_POCI USA_ROCI USA_RMW USA_EYE TOKYO_LAT TOKYO_LON TOKYO_GRADE TOKYO_WIND TOKYO_PRES TOKYO_R50_DIR TOKYO_R50_LONG TOKYO_R50_SHORT TOKYO_R30_DIR TOKYO_R30_LONG TOKYO_R30_SHORT TOKYO_LAND CMA_LAT CMA_LON CMA_CAT CMA_WIND CMA_PRES HKO_LAT HKO_LON HKO_CAT HKO_WIND HKO_PRES NEWDELHI_LAT NEWDELHI_LON NEWDELHI_GRADE NEWDELHI_WIND NEWDELHI_PRES NEWDELHI_CI NEWDELHI_DP NEWDELHI_POCI REUNION_LAT REUNION_LON REUNION_TYPE REUNION_WIND REUNION_PRES REUNION_TNUM REUNION_CI REUNION_RMW REUNION_R34_NE REUNION_R34_SE REUNION_R34_SW REUNION_R34_NW REUNION_R50_NE REUNION_R50_SE REUNION_R50_SW REUNION_R50_NW REUNION_R64_NE REUNION_R64_SE REUNION_R64_SW REUNION_R64_NW BOM_LAT BOM_LON BOM_TYPE BOM_WIND BOM_PRES BOM_TNUM BOM_CI BOM_RMW BOM_R34_NE BOM_R34_SE BOM_R34_SW BOM_R34_NW BOM_R50_NE BOM_R50_SE BOM_R50_SW BOM_R50_NW BOM_R64_NE BOM_R64_SE BOM_R64_SW BOM_R64_NW BOM_ROCI BOM_POCI BOM_EYE BOM_POS_METHOD BOM_PRES_METHOD NADI_LAT NADI_LON NADI_CAT NADI_WIND NADI_PRES WELLINGTON_LAT WELLINGTON_LON WELLINGTON_WIND WELLINGTON_PRES DS824_LAT DS824_LON DS824_STAGE DS824_WIND DS824_PRES TD9636_LAT TD9636_LON TD9636_STAGE TD9636_WIND TD9636_PRES TD9635_LAT TD9635_LON TD9635_WIND TD9635_PRES TD9635_ROCI NEUMANN_LAT NEUMANN_LON NEUMANN_CLASS NEUMANN_WIND NEUMANN_PRES MLC_LAT MLC_LON MLC_CLASS MLC_WIND MLC_PRES USA_GUST BOM_GUST BOM_GUST_PER REUNION_GUST REUNION_GUST_PER USA_SEAHGT USA_SEARAD_NE USA_SEARAD_SE USA_SEARAD_SW USA_SEARAD_NW STORM_SPEED STORM_DIR
1917223N15127 1917 33 WP MM NOT_NAMED 1917-08-10 22:00:00 NR 15.1000 127.200 main 330 302 __________O___ -1 15.1000 127.200 4 15 300
1917223N15127 1917 33 WP MM NOT_NAMED 1917-08-11 00:00:00 NR 15.3456 126.759 main 302 271 __________P___ -1 15.3456 126.759 4 15 300
1917223N15127 1917 33 WP MM NOT_NAMED 1917-08-11 03:00:00 NR 15.7148 126.092 main 271 258 __________P___ -1 15.7148 126.092 4 15 300
1917223N15127 1917 33 WP MM NOT_NAMED 1917-08-11 06:00:00 NR 16.0885 125.418 main 263 238 __________P___ -1 16.0885 125.418 4 15 300
1917223N15127 1917 33 WP MM NOT_NAMED 1917-08-11 09:00:00 NR 16.4703 124.732 main 238 215 __________P___ -1 16.4703 124.732 4 15 300
1917223N15127 1917 33 WP MM NOT_NAMED 1917-08-11 10:00:00 NR 16.6000 124.500 main 215 159 __________O___ -1 16.6000 124.500 4 16 300
1917223N15127 1917 33 WP MM NOT_NAMED 1917-08-11 12:00:00 NR 16.8630 124.032 main 159 91 __________P___ -1 16.8630 124.032 4 16 300
1917223N15127 1917 33 WP MM NOT_NAMED 1917-08-11 15:00:00 NR 17.2581 123.329 main 91 39 __________P___ -1 17.2581 123.329 4 15 300
1917223N15127 1917 33 WP MM NOT_NAMED 1917-08-11 18:00:00 NR 17.6396 122.645 main 39 0 __________P___ -1 17.6396 122.645 4 15 300
1917223N15127 1917 33 WP MM NOT_NAMED 1917-08-11 21:00:00 NR 17.9918 122.002 main 0 0 __________P___ -1 17.9918 122.002 4 14 300
1917223N15127 1917 33 WP MM NOT_NAMED 1917-08-11 22:00:00 NR 18.1000 121.800 main 0 0 __________O___ -1 18.1000 121.800 4 13 299
1917223N15127 1917 33 WP MM NOT_NAMED 1917-08-12 00:00:00 NR 18.2945 121.418 main 0 0 __________P___ -1 18.2945 121.418 4 12 298
1917223N15127 1917 33 WP MM NOT_NAMED 1917-08-12 03:00:00 NR 18.5553 120.890 main 0 0 __________P___ -1 18.5553 120.890 4 11 297
1917223N15127 1917 33 WP MM NOT_NAMED 1917-08-12 06:00:00 NR 18.7929 120.404 main 47 47 __________P___ -1 18.7929 120.404 4 10 298
1917223N15127 1917 33 WP MM NOT_NAMED 1917-08-12 09:00:00 NR 19.0226 119.948 main 99 99 __________P___ -1 19.0226 119.948 4 10 298
1917223N15127 1917 33 WP MM NOT_NAMED 1917-08-12 10:00:00 NR 19.1000 119.800 main 115 115 __________O___ -1 19.1000 119.800 4 10 300
1917223N15127 1917 33 WP MM NOT_NAMED 1917-08-12 12:00:00 NR 19.2689 119.497 main 153 153 __________P___ -1 19.2689 119.497 4 10 301
1917223N15127 1917 33 WP MM NOT_NAMED 1917-08-12 15:00:00 NR 19.5226 119.061 main 200 208 __________P___ -1 19.5226 119.061 4 10 302
1917223N15127 1917 33 WP MM NOT_NAMED 1917-08-12 18:00:00 NR 19.7740 118.642 main 262 262 __________P___ -1 19.7740 118.642 4 9 303
1917223N15127 1917 33 WP MM NOT_NAMED 1917-08-12 21:00:00 NR 20.0199 118.234 main 309 309 __________P___ -1 20.0199 118.234 4 9 303
1917223N15127 1917 33 WP MM NOT_NAMED 1917-08-12 22:00:00 NR 20.1000 118.100 main 324 320 __________O___ -1 20.1000 118.100 4 9 301
1917223N15127 1917 33 WP MM NOT_NAMED 1917-08-13 00:00:00 NR 20.2528 117.827 main 320 283 __________P___ -1 20.2528 117.827 4 9 301
1917223N15127 1917 33 WP MM NOT_NAMED 1917-08-13 03:00:00 NR 20.4759 117.425 main 283 251 __________P___ -1 20.4759 117.425 4 9 301
1917223N15127 1917 33 WP MM NOT_NAMED 1917-08-13 06:00:00 NR 20.6971 117.027 main 251 217 __________P___ -1 20.6971 117.027 4 9 301
1917223N15127 1917 33 WP MM NOT_NAMED 1917-08-13 09:00:00 NR 20.9227 116.632 main 217 203 __________P___ -1 20.9227 116.632 4 9 302
1917223N15127 1917 33 WP MM NOT_NAMED 1917-08-13 10:00:00 NR 21.0000 116.500 main 203 172 __________O___ -1 21.0000 116.500 4 9 302
1917223N15127 1917 33 WP MM NOT_NAMED 1917-08-13 12:00:00 NR 21.1585 116.236 main 172 145 __________P___ -1 21.1585 116.236 4 9 303
1917223N15127 1917 33 WP MM NOT_NAMED 1917-08-13 15:00:00 NR 21.4046 115.837 main 145 103 __________P___ -1 21.4046 115.837 4 9 304
1917223N15127 1917 33 WP MM NOT_NAMED 1917-08-13 18:00:00 NR 21.6576 115.437 main 103 67 __________P___ -1 21.6576 115.437 4 9 304
1917223N15127 1917 33 WP MM NOT_NAMED 1917-08-13 21:00:00 NR 21.9143 115.034 main 67 55 __________P___ -1 21.9143 115.034 4 9 305
1917223N15127 1917 33 WP MM NOT_NAMED 1917-08-13 22:00:00 NR 22.0000 114.900 main 55 __________O___ -1 22.0000 114.900 4 9 304

デジタル台風データ・検索

IBTrACS Databaseについて

本データベースは、米国NOAAが公開する1842年以降の世界の熱帯低気圧のベストトラックデータアーカイブInternational Best Track Archive for Climate Stewardship (IBTrACS)を、ウェブで閲覧しやすい形式に変換したものです。

最終更新日:2021-10-25